createdAt,value
2019-02-07T00:00:09.314Z,2008
2019-02-07T00:01:09.340Z,2008
2019-02-07T00:02:09.319Z,2008
2019-02-07T00:03:09.374Z,2008
2019-02-07T00:04:09.339Z,2008
2019-02-07T00:05:09.311Z,2008
2019-02-07T00:06:09.372Z,2008
2019-02-07T00:07:09.428Z,2008
2019-02-07T00:08:09.501Z,2008
2019-02-07T00:09:09.321Z,2008
2019-02-07T00:10:09.317Z,2008
2019-02-07T00:11:09.393Z,2008
2019-02-07T00:12:09.343Z,2008
2019-02-07T00:13:09.410Z,2008
2019-02-07T00:14:09.311Z,2008
2019-02-07T00:15:09.307Z,2008
2019-02-07T00:16:09.314Z,2008
2019-02-07T00:17:09.303Z,2008
2019-02-07T00:18:09.402Z,2008
2019-02-07T00:19:09.339Z,2008
2019-02-07T00:20:09.491Z,2008
2019-02-07T00:21:09.358Z,2008
2019-02-07T00:22:09.295Z,2008
2019-02-07T00:23:09.427Z,2008
2019-02-07T00:24:09.343Z,2008
2019-02-07T00:25:09.544Z,2008
2019-02-07T00:26:09.489Z,2008
2019-02-07T00:27:09.301Z,2008
2019-02-07T00:28:09.333Z,2008
2019-02-07T00:29:09.331Z,2008
2019-02-07T00:30:09.333Z,2008
2019-02-07T00:31:09.420Z,2008
2019-02-07T00:32:09.309Z,2008
2019-02-07T00:33:09.351Z,2008
2019-02-07T00:34:09.549Z,2008
2019-02-07T00:35:09.341Z,2008
2019-02-07T00:36:09.363Z,2008
2019-02-07T00:38:09.295Z,2008
2019-02-07T00:39:09.385Z,2008
2019-02-07T00:40:09.361Z,2008
2019-02-07T00:41:09.380Z,2008
2019-02-07T00:42:09.534Z,2008
2019-02-07T00:43:09.351Z,2008
2019-02-07T00:44:09.299Z,2008
2019-02-07T00:46:09.339Z,2008
2019-02-07T00:47:09.308Z,2008
2019-02-07T00:48:09.333Z,2008
2019-02-07T00:49:09.324Z,2008
2019-02-07T00:50:09.303Z,2008
2019-02-07T00:51:09.308Z,2008
2019-02-07T00:52:09.404Z,2008
2019-02-07T00:53:09.340Z,2008
2019-02-07T00:54:09.283Z,2008
2019-02-07T00:55:09.384Z,2008
2019-02-07T00:56:09.436Z,2008
2019-02-07T00:57:09.364Z,2008
2019-02-07T00:58:09.308Z,2008
2019-02-07T00:59:09.329Z,2008
2019-02-07T01:00:09.319Z,2008
2019-02-07T01:01:09.287Z,2008
2019-02-07T01:02:09.463Z,2008
2019-02-07T01:03:09.385Z,2008
2019-02-07T01:04:09.311Z,2008
2019-02-07T01:05:09.384Z,2008
2019-02-07T01:06:09.326Z,2008
2019-02-07T01:07:09.299Z,2008
2019-02-07T01:08:09.484Z,2008
2019-02-07T01:09:09.394Z,2008
2019-02-07T01:10:09.366Z,2008
2019-02-07T01:11:09.380Z,2008
2019-02-07T01:12:09.386Z,2008
2019-02-07T01:13:09.336Z,2008
2019-02-07T01:14:09.344Z,2008
2019-02-07T01:15:09.354Z,2008
2019-02-07T01:16:09.427Z,2008
2019-02-07T01:17:09.322Z,2008
2019-02-07T01:18:09.305Z,2008
2019-02-07T01:19:09.381Z,2008
2019-02-07T01:20:09.394Z,2008
2019-02-07T01:21:09.301Z,2008
2019-02-07T01:22:09.510Z,2008
2019-02-07T01:23:09.365Z,2008
2019-02-07T01:24:09.318Z,2008
2019-02-07T01:25:09.478Z,2008
2019-02-07T01:26:09.373Z,2008
2019-02-07T01:27:09.291Z,2008
2019-02-07T01:28:09.318Z,2008
2019-02-07T01:29:09.313Z,2008
2019-02-07T01:31:09.364Z,2008
2019-02-07T01:32:09.332Z,2008
2019-02-07T01:33:09.318Z,2008
2019-02-07T01:35:09.401Z,2008
2019-02-07T01:36:09.335Z,2008
2019-02-07T01:37:09.463Z,2008
2019-02-07T01:38:09.298Z,2008
2019-02-07T01:39:09.293Z,2008
2019-02-07T01:40:09.274Z,2008
2019-02-07T01:41:09.395Z,2008
2019-02-07T01:42:09.326Z,2008
2019-02-07T01:43:09.389Z,2008
2019-02-07T01:44:09.269Z,2008
2019-02-07T01:45:12.916Z,2008
2019-02-07T01:46:09.312Z,2008
2019-02-07T01:47:09.281Z,2008
2019-02-07T01:48:09.311Z,2008
2019-02-07T01:49:09.411Z,2008
2019-02-07T01:50:09.263Z,2008
2019-02-07T01:51:09.340Z,2008
2019-02-07T01:52:09.334Z,2008
2019-02-07T01:53:09.318Z,2008
2019-02-07T01:54:09.415Z,2008
2019-02-07T01:55:09.298Z,2008
2019-02-07T01:56:09.316Z,2008
2019-02-07T01:57:09.300Z,2008
2019-02-07T01:58:09.341Z,2008
2019-02-07T01:59:09.434Z,2008
2019-02-07T02:00:09.443Z,2008
2019-02-07T02:01:09.326Z,2008
2019-02-07T02:02:09.336Z,2008
2019-02-07T02:03:09.364Z,2008
2019-02-07T02:04:09.293Z,2008
2019-02-07T02:05:09.427Z,2008
2019-02-07T02:06:09.349Z,2008
2019-02-07T02:07:09.370Z,2008
2019-02-07T02:08:09.300Z,2008
2019-02-07T02:09:09.465Z,2008
2019-02-07T02:10:09.366Z,2008
2019-02-07T02:11:09.345Z,2008
2019-02-07T02:12:09.445Z,2008
2019-02-07T02:13:09.429Z,2008
2019-02-07T02:14:09.397Z,2008
2019-02-07T02:15:09.314Z,2008
2019-02-07T02:16:09.351Z,2008
2019-02-07T02:17:09.364Z,2008
2019-02-07T02:18:09.308Z,2008
2019-02-07T02:19:09.345Z,2008
2019-02-07T02:20:09.326Z,2008
2019-02-07T02:21:09.483Z,2008
2019-02-07T02:22:09.668Z,2008
2019-02-07T02:23:09.392Z,2008
2019-02-07T02:24:09.295Z,2008
2019-02-07T02:25:09.338Z,2008
2019-02-07T02:26:09.303Z,2008
2019-02-07T02:27:09.304Z,2008
2019-02-07T02:28:09.433Z,2008
2019-02-07T02:29:09.576Z,2008
2019-02-07T02:30:09.303Z,2008
2019-02-07T02:31:09.345Z,2008
2019-02-07T02:32:09.380Z,2008
2019-02-07T02:33:09.300Z,2008
2019-02-07T02:34:09.465Z,2008
2019-02-07T02:35:09.321Z,2008
2019-02-07T02:36:09.348Z,2008
2019-02-07T02:37:09.311Z,2008
2019-02-07T02:38:09.360Z,2008
2019-02-07T02:39:10.709Z,2008
2019-02-07T02:40:09.341Z,2008
2019-02-07T02:41:09.298Z,2008
2019-02-07T02:42:09.300Z,2008
2019-02-07T02:43:09.302Z,2008
2019-02-07T02:44:09.412Z,2008
2019-02-07T02:45:09.378Z,2008
2019-02-07T02:46:09.372Z,2008
2019-02-07T02:47:09.358Z,2008
2019-02-07T02:48:09.336Z,2008
2019-02-07T02:49:09.370Z,2008
2019-02-07T02:50:09.375Z,2008
2019-02-07T02:51:09.331Z,2008
2019-02-07T02:52:09.408Z,2008
2019-02-07T02:53:09.296Z,2008
2019-02-07T02:54:09.310Z,2008
2019-02-07T02:55:09.350Z,2008
2019-02-07T02:56:09.294Z,2008
2019-02-07T02:57:09.390Z,2008
2019-02-07T02:58:09.301Z,2008
2019-02-07T02:59:09.301Z,2008
2019-02-07T03:00:09.359Z,2008
2019-02-07T03:01:09.308Z,2008
2019-02-07T03:02:09.407Z,2008
2019-02-07T03:03:09.344Z,2008
2019-02-07T03:04:09.352Z,2008
2019-02-07T03:05:09.396Z,2008
2019-02-07T03:06:09.303Z,2008
2019-02-07T03:07:09.359Z,2008
2019-02-07T03:08:09.464Z,2008
2019-02-07T03:09:09.335Z,2008
2019-02-07T03:10:09.310Z,2008
2019-02-07T03:11:09.315Z,2008
2019-02-07T03:12:09.297Z,2008
2019-02-07T03:13:09.366Z,2008
2019-02-07T03:14:09.422Z,2008
2019-02-07T03:15:09.341Z,2008
2019-02-07T03:16:09.307Z,2008
2019-02-07T03:17:09.327Z,2008
2019-02-07T03:18:09.322Z,2008
2019-02-07T03:19:09.339Z,2008
2019-02-07T03:20:09.358Z,2008
2019-02-07T03:21:09.301Z,2008
2019-02-07T03:22:09.295Z,2008
2019-02-07T03:23:09.318Z,2008
2019-02-07T03:24:09.305Z,2008
2019-02-07T03:25:09.300Z,2008
2019-02-07T03:26:09.367Z,2008
2019-02-07T03:27:09.406Z,2008
2019-02-07T03:28:09.313Z,2008
2019-02-07T03:29:09.302Z,2008
2019-02-07T03:31:09.350Z,2008
2019-02-07T03:32:09.339Z,2008
2019-02-07T03:33:09.321Z,2008
2019-02-07T03:34:09.400Z,2008
2019-02-07T03:35:09.351Z,2008
2019-02-07T03:36:09.296Z,2008
2019-02-07T03:37:09.301Z,2008
2019-02-07T03:38:09.427Z,2008
2019-02-07T03:39:09.355Z,2008
2019-02-07T03:40:09.307Z,2008
2019-02-07T03:41:09.277Z,2008
2019-02-07T03:42:09.309Z,2008
2019-02-07T03:43:09.337Z,2008
2019-02-07T03:44:09.413Z,2008
2019-02-07T03:45:09.324Z,2008
2019-02-07T03:46:09.492Z,2008
2019-02-07T03:47:09.428Z,2008
2019-02-07T03:48:09.327Z,2008
2019-02-07T03:49:09.345Z,2008
2019-02-07T03:50:09.383Z,2008
2019-02-07T03:51:09.303Z,2008
2019-02-07T03:52:09.349Z,2008
2019-02-07T03:53:09.358Z,2008
2019-02-07T03:54:09.290Z,2008
2019-02-07T03:55:09.344Z,2008
2019-02-07T03:56:10.488Z,2008
2019-02-07T03:57:09.354Z,2008
2019-02-07T03:58:09.302Z,2008
2019-02-07T03:59:09.419Z,2008
2019-02-07T04:00:09.470Z,2008
2019-02-07T04:01:09.408Z,2008
2019-02-07T04:02:09.354Z,2008
2019-02-07T04:03:09.344Z,2008
2019-02-07T04:04:09.381Z,2008
2019-02-07T04:05:09.317Z,2008
2019-02-07T04:06:09.310Z,2008
2019-02-07T04:07:09.319Z,2008
2019-02-07T04:08:09.320Z,2008
2019-02-07T04:09:09.508Z,2008
2019-02-07T04:10:09.364Z,2008
2019-02-07T04:11:09.325Z,2008
2019-02-07T04:12:09.357Z,2008
2019-02-07T04:13:09.317Z,2008
2019-02-07T04:14:09.518Z,2008
2019-02-07T04:15:09.343Z,2008
2019-02-07T04:16:15.285Z,2008
2019-02-07T04:17:09.322Z,2008
2019-02-07T04:18:09.295Z,2008
2019-02-07T04:19:09.403Z,2008
2019-02-07T04:20:09.323Z,2008
2019-02-07T04:21:09.405Z,2008
2019-02-07T04:22:09.313Z,2008
2019-02-07T04:23:09.362Z,2008
2019-02-07T04:24:09.305Z,2008
2019-02-07T04:25:09.323Z,2008
2019-02-07T04:26:09.320Z,2008
2019-02-07T04:27:09.345Z,2008
2019-02-07T04:28:09.366Z,2008
2019-02-07T04:29:09.513Z,2008
2019-02-07T04:30:09.357Z,2008
2019-02-07T04:31:09.315Z,2008
2019-02-07T04:32:09.333Z,2008
2019-02-07T04:33:09.389Z,2008
2019-02-07T04:34:09.449Z,2008
2019-02-07T04:35:09.305Z,2008
2019-02-07T04:36:09.310Z,2008
2019-02-07T04:37:09.372Z,2008
2019-02-07T04:38:09.633Z,2008
2019-02-07T04:39:09.337Z,2008
2019-02-07T04:40:12.079Z,2008
2019-02-07T04:41:09.350Z,2008
2019-02-07T04:42:09.349Z,2008
2019-02-07T04:43:09.393Z,2008
2019-02-07T04:44:09.385Z,2008
2019-02-07T04:45:09.446Z,2008
2019-02-07T04:46:09.388Z,2008
2019-02-07T04:47:09.486Z,2008
2019-02-07T04:48:09.321Z,2008
2019-02-07T04:49:09.368Z,2008
2019-02-07T04:50:09.303Z,2008
2019-02-07T04:51:09.291Z,2008
2019-02-07T04:52:09.346Z,2008
2019-02-07T04:53:09.354Z,2008
2019-02-07T04:55:09.469Z,2008
2019-02-07T04:56:09.389Z,2008
2019-02-07T04:57:09.303Z,2008
2019-02-07T04:58:09.434Z,2008
2019-02-07T04:59:09.314Z,2008
2019-02-07T05:00:10.019Z,2008
2019-02-07T05:01:09.320Z,2008
2019-02-07T05:02:09.305Z,2008
2019-02-07T05:03:09.327Z,2008
2019-02-07T05:04:09.323Z,2008
2019-02-07T05:05:10.386Z,2008
2019-02-07T05:06:09.333Z,2008
2019-02-07T05:07:09.347Z,2008
2019-02-07T05:08:09.477Z,2008
2019-02-07T05:09:09.320Z,2008
2019-02-07T05:10:09.481Z,2008
2019-02-07T05:11:09.408Z,2008
2019-02-07T05:12:09.326Z,2008
2019-02-07T05:13:09.377Z,2008
2019-02-07T05:14:09.310Z,2008
2019-02-07T05:15:09.355Z,2008
2019-02-07T05:16:09.499Z,2008
2019-02-07T05:17:09.403Z,2008
2019-02-07T05:18:09.320Z,2008
2019-02-07T05:19:09.304Z,2008
2019-02-07T05:20:09.309Z,2008
2019-02-07T05:21:09.379Z,2008
2019-02-07T05:22:09.423Z,2008
2019-02-07T05:23:09.291Z,2008
2019-02-07T05:24:09.395Z,2008
2019-02-07T05:25:09.298Z,2008
2019-02-07T05:26:09.415Z,2008
2019-02-07T05:27:09.348Z,2008
2019-02-07T05:28:09.330Z,2008
2019-02-07T05:29:09.383Z,2008
2019-02-07T05:30:09.306Z,2008
2019-02-07T05:31:09.308Z,2008
2019-02-07T05:32:09.378Z,2008
2019-02-07T05:33:09.594Z,2008
2019-02-07T05:34:09.331Z,2008
2019-02-07T05:35:09.334Z,2008
2019-02-07T05:36:09.398Z,2008
2019-02-07T05:37:09.353Z,2008
2019-02-07T05:38:09.299Z,2008
2019-02-07T05:39:09.352Z,2008
2019-02-07T05:40:09.298Z,2008
2019-02-07T05:41:09.329Z,2008
2019-02-07T05:42:09.350Z,2008
2019-02-07T05:43:09.343Z,2008
2019-02-07T05:44:09.343Z,2008
2019-02-07T05:45:09.302Z,2008
2019-02-07T05:46:09.450Z,2008
2019-02-07T05:47:09.387Z,2008
2019-02-07T05:48:09.328Z,2008
2019-02-07T05:49:09.335Z,2008
2019-02-07T05:50:09.398Z,2008
2019-02-07T05:51:09.320Z,2008
2019-02-07T05:52:09.361Z,2008
2019-02-07T05:53:09.408Z,2008
2019-02-07T05:54:09.405Z,2008
2019-02-07T05:55:09.373Z,2008
2019-02-07T05:56:09.296Z,2008
2019-02-07T05:57:09.633Z,2008
2019-02-07T05:58:09.314Z,2008
2019-02-07T05:59:09.357Z,2008
2019-02-07T06:00:09.349Z,2008
2019-02-07T06:01:09.345Z,2008
2019-02-07T06:02:09.477Z,2008
2019-02-07T06:03:09.335Z,2008
2019-02-07T06:04:09.479Z,2008
2019-02-07T06:05:09.315Z,2008
2019-02-07T06:06:09.326Z,2008
2019-02-07T06:07:09.318Z,2008
2019-02-07T06:08:09.382Z,2008
2019-02-07T06:09:09.435Z,2008
2019-02-07T06:10:09.310Z,2008
2019-02-07T06:11:09.308Z,2008
2019-02-07T06:12:09.303Z,2008
2019-02-07T06:13:09.348Z,2008
2019-02-07T06:14:09.405Z,2008
2019-02-07T06:15:09.505Z,2008
2019-02-07T06:16:09.315Z,2008
2019-02-07T06:17:09.310Z,2008
2019-02-07T06:19:09.349Z,2008
2019-02-07T06:20:09.326Z,2008
2019-02-07T06:21:09.340Z,2008
2019-02-07T06:22:09.299Z,2008
2019-02-07T06:23:09.340Z,2008
2019-02-07T06:24:09.391Z,2008
2019-02-07T06:25:09.341Z,2008
2019-02-07T06:26:09.297Z,2008
2019-02-07T06:27:09.320Z,2008
2019-02-07T06:28:09.436Z,2008
2019-02-07T06:29:09.497Z,2008
2019-02-07T06:30:09.347Z,2008
2019-02-07T06:31:09.351Z,2008
2019-02-07T06:32:09.379Z,2008
2019-02-07T06:33:09.327Z,2008
2019-02-07T06:34:09.349Z,2008
2019-02-07T06:35:09.396Z,2008
2019-02-07T06:36:09.374Z,2008
2019-02-07T06:37:09.339Z,2008
2019-02-07T06:38:09.331Z,2008
2019-02-07T06:39:09.306Z,2008
2019-02-07T06:40:09.499Z,2008
2019-02-07T06:41:09.383Z,2008
2019-02-07T06:42:09.350Z,2008
2019-02-07T06:43:09.301Z,2008
2019-02-07T06:44:09.635Z,2008
2019-02-07T06:45:09.345Z,2008
2019-02-07T06:46:09.385Z,2008
2019-02-07T06:47:13.582Z,2009
2019-02-07T06:48:09.310Z,2009
2019-02-07T06:49:09.425Z,2009
2019-02-07T06:50:09.521Z,2009
2019-02-07T06:51:10.941Z,2009
2019-02-07T06:52:09.298Z,2010
2019-02-07T06:53:11.260Z,2010
2019-02-07T06:54:11.050Z,2010
2019-02-07T06:55:11.662Z,2010
2019-02-07T06:56:09.308Z,2010
2019-02-07T06:57:09.321Z,2010
2019-02-07T06:58:09.347Z,2010
2019-02-07T06:59:09.306Z,2010
2019-02-07T07:00:09.333Z,2010
2019-02-07T07:01:09.376Z,2010
2019-02-07T07:02:09.552Z,2009
2019-02-07T07:03:09.306Z,2009
2019-02-07T07:04:09.305Z,2009
2019-02-07T07:05:09.341Z,2009
2019-02-07T07:06:09.382Z,2009
2019-02-07T07:07:09.318Z,2009
2019-02-07T07:08:09.410Z,2009
2019-02-07T07:09:09.299Z,2009
2019-02-07T07:10:09.341Z,2009
2019-02-07T07:11:09.315Z,2009
2019-02-07T07:12:09.448Z,2009
2019-02-07T07:13:09.422Z,2009
2019-02-07T07:14:09.675Z,2009
2019-02-07T07:15:09.415Z,2009
2019-02-07T07:16:09.299Z,2009
2019-02-07T07:17:09.313Z,2009
2019-02-07T07:18:09.514Z,2009
2019-02-07T07:19:09.610Z,2009
2019-02-07T07:20:09.368Z,2009
2019-02-07T07:21:09.299Z,2009
2019-02-07T07:22:09.374Z,2009
2019-02-07T07:23:09.342Z,2009
2019-02-07T07:24:09.338Z,2009
2019-02-07T07:25:09.348Z,2009
2019-02-07T07:26:09.623Z,2009
2019-02-07T07:27:09.345Z,2009
2019-02-07T07:28:10.123Z,2009
2019-02-07T07:29:09.349Z,2009
2019-02-07T07:30:09.425Z,2009
2019-02-07T07:31:09.338Z,2009
2019-02-07T07:32:09.442Z,2009
2019-02-07T07:33:09.297Z,2009
2019-02-07T07:34:10.997Z,2009
2019-02-07T07:35:09.784Z,2009
2019-02-07T07:36:14.289Z,2009
2019-02-07T07:37:09.458Z,2009
2019-02-07T07:38:10.714Z,2009
2019-02-07T07:39:09.435Z,2009
2019-02-07T07:40:09.881Z,2009
2019-02-07T07:41:09.355Z,2008
2019-02-07T07:42:09.358Z,2008
2019-02-07T07:43:10.255Z,2008
2019-02-07T07:44:09.314Z,2008
2019-02-07T07:45:09.846Z,2008
2019-02-07T07:46:10.359Z,2008
2019-02-07T07:47:09.372Z,2008
2019-02-07T07:48:10.180Z,2008
2019-02-07T07:49:10.567Z,2008
2019-02-07T07:50:10.185Z,2008
2019-02-07T07:51:10.034Z,2008
2019-02-07T07:52:09.850Z,2008
2019-02-07T07:53:10.327Z,2008
2019-02-07T07:54:09.999Z,2008
2019-02-07T07:55:09.824Z,2008
2019-02-07T07:56:09.974Z,2008
2019-02-07T07:57:09.518Z,2008
2019-02-07T07:58:09.408Z,2008
2019-02-07T07:59:09.682Z,2008
2019-02-07T08:00:09.389Z,2008
2019-02-07T08:01:09.397Z,2008
2019-02-07T08:02:09.338Z,2008
2019-02-07T08:03:09.341Z,2008
2019-02-07T08:04:09.357Z,2008
2019-02-07T08:05:09.384Z,2008
2019-02-07T08:06:09.385Z,2008
2019-02-07T08:07:09.355Z,2008
2019-02-07T08:08:09.355Z,2008
2019-02-07T08:09:09.361Z,2008
2019-02-07T08:10:09.378Z,2008
2019-02-07T08:11:09.343Z,2008
2019-02-07T08:12:09.850Z,2008
2019-02-07T08:13:09.661Z,2008
2019-02-07T08:14:09.408Z,2008
2019-02-07T08:15:09.310Z,2008
2019-02-07T08:16:09.607Z,2008
2019-02-07T08:17:09.362Z,2008
2019-02-07T08:18:09.472Z,2008
2019-02-07T08:19:09.362Z,2008
2019-02-07T08:20:09.453Z,2008
2019-02-07T08:21:09.323Z,2008
2019-02-07T08:22:09.364Z,2008
2019-02-07T08:23:09.367Z,2008
2019-02-07T08:24:09.313Z,2008
2019-02-07T08:25:09.353Z,2008
2019-02-07T08:26:09.299Z,2008
2019-02-07T08:27:09.307Z,2008
2019-02-07T08:28:09.324Z,2008
2019-02-07T08:29:09.302Z,2008
2019-02-07T08:30:09.530Z,2008
2019-02-07T08:31:09.318Z,2008
2019-02-07T08:32:09.296Z,2008
2019-02-07T08:33:09.301Z,2008
2019-02-07T08:34:09.303Z,2008
2019-02-07T08:35:09.361Z,2008
2019-02-07T08:36:09.303Z,2008
2019-02-07T08:37:09.320Z,2008
2019-02-07T08:38:09.301Z,2008
2019-02-07T08:39:09.319Z,2008
2019-02-07T08:40:09.360Z,2008
2019-02-07T08:41:09.309Z,2008
2019-02-07T08:42:09.316Z,2008
2019-02-07T08:43:09.304Z,2008
2019-02-07T08:44:13.812Z,2008
2019-02-07T08:45:09.379Z,2008
2019-02-07T08:46:09.446Z,2008
2019-02-07T08:47:09.341Z,2007
2019-02-07T08:48:09.322Z,2007
2019-02-07T08:49:09.323Z,2007
2019-02-07T08:50:09.481Z,2007
2019-02-07T08:51:09.311Z,2007
2019-02-07T08:52:09.826Z,2007
2019-02-07T08:53:09.676Z,2007
2019-02-07T08:54:10.499Z,2007
2019-02-07T08:55:09.297Z,2008
2019-02-07T08:56:09.571Z,2008
2019-02-07T08:57:09.436Z,2008
2019-02-07T08:58:09.299Z,2008
2019-02-07T08:59:09.309Z,2008
2019-02-07T09:00:09.375Z,2009
2019-02-07T09:01:11.438Z,2009
2019-02-07T09:02:09.313Z,2010
2019-02-07T09:03:10.097Z,2010
2019-02-07T09:04:09.418Z,2010
2019-02-07T09:05:09.458Z,2009
2019-02-07T09:06:09.299Z,2009
2019-02-07T09:07:09.466Z,2009
2019-02-07T09:08:10.250Z,2009
2019-02-07T09:09:09.306Z,2009
2019-02-07T09:10:09.496Z,2008
2019-02-07T09:11:09.310Z,2008
2019-02-07T09:12:09.540Z,2008
2019-02-07T09:13:10.687Z,2008
2019-02-07T09:14:09.352Z,2008
2019-02-07T09:15:09.308Z,2008
2019-02-07T09:16:09.647Z,2008
2019-02-07T09:17:14.430Z,2008
2019-02-07T09:18:12.774Z,2008
2019-02-07T09:19:09.377Z,2008
2019-02-07T09:20:09.495Z,2009
2019-02-07T09:21:09.346Z,2009
2019-02-07T09:22:09.483Z,2009
2019-02-07T09:23:09.898Z,2009
2019-02-07T09:24:09.723Z,2009
2019-02-07T09:25:09.366Z,2009
2019-02-07T09:26:09.301Z,2009
2019-02-07T09:27:09.304Z,2009
2019-02-07T09:28:09.345Z,2009
2019-02-07T09:29:09.447Z,2009
2019-02-07T09:30:09.343Z,2009
2019-02-07T09:31:09.301Z,2010
2019-02-07T09:32:09.330Z,2011
2019-02-07T09:33:09.277Z,2011
2019-02-07T09:34:09.333Z,2011
2019-02-07T09:35:09.339Z,2011
2019-02-07T09:36:10.124Z,2011
2019-02-07T09:37:09.339Z,2011
2019-02-07T09:38:09.288Z,2010
2019-02-07T09:39:09.300Z,2010
2019-02-07T09:40:09.584Z,2010
2019-02-07T09:41:09.326Z,2010
2019-02-07T09:42:09.274Z,2010
2019-02-07T09:43:09.339Z,2010
2019-02-07T09:44:09.350Z,2010
2019-02-07T09:45:09.392Z,2010
2019-02-07T09:46:09.350Z,2010
2019-02-07T09:47:09.390Z,2010
2019-02-07T09:48:09.432Z,2010
2019-02-07T09:49:09.354Z,2010
2019-02-07T09:50:09.381Z,2010
2019-02-07T09:51:09.303Z,2010
2019-02-07T09:52:09.427Z,2010
2019-02-07T09:53:09.364Z,2010
2019-02-07T09:54:09.323Z,2010
2019-02-07T09:55:09.401Z,2010
2019-02-07T09:56:09.337Z,2010
2019-02-07T09:57:09.371Z,2010
2019-02-07T09:58:09.354Z,2010
2019-02-07T09:59:09.421Z,2010
2019-02-07T10:00:09.328Z,2010
2019-02-07T10:01:09.303Z,2010
2019-02-07T10:02:09.369Z,2010
2019-02-07T10:03:09.389Z,2010
2019-02-07T10:04:09.330Z,2010
2019-02-07T10:05:09.369Z,2010
2019-02-07T10:06:09.397Z,2010
2019-02-07T10:07:09.370Z,2010
2019-02-07T10:08:09.336Z,2010
2019-02-07T10:09:09.374Z,2010
2019-02-07T10:10:09.374Z,2010
2019-02-07T10:11:09.360Z,2010
2019-02-07T10:12:09.394Z,2010
2019-02-07T10:13:11.386Z,2010
2019-02-07T10:14:09.616Z,2010
2019-02-07T10:15:09.360Z,2010
2019-02-07T10:16:09.382Z,2010
2019-02-07T10:17:09.326Z,2010
2019-02-07T10:18:09.303Z,2010
2019-02-07T10:19:09.346Z,2010
2019-02-07T10:20:09.383Z,2010
2019-02-07T10:21:10.996Z,2010
2019-02-07T10:22:09.350Z,2010
2019-02-07T10:23:09.312Z,2010
2019-02-07T10:24:09.543Z,2010
2019-02-07T10:25:09.458Z,2010
2019-02-07T10:26:09.320Z,2010
2019-02-07T10:27:09.299Z,2010
2019-02-07T10:28:09.312Z,2010
2019-02-07T10:29:09.353Z,2010
2019-02-07T10:30:09.448Z,2010
2019-02-07T10:31:09.400Z,2010
2019-02-07T10:32:09.326Z,2010
2019-02-07T10:33:09.463Z,2010
2019-02-07T10:34:09.337Z,2010
2019-02-07T10:35:09.354Z,2010
2019-02-07T10:36:09.307Z,2010
2019-02-07T10:37:09.296Z,2010
2019-02-07T10:38:09.315Z,2010
2019-02-07T10:39:09.292Z,2010
2019-02-07T10:40:11.138Z,2010
2019-02-07T10:41:09.437Z,2010
2019-02-07T10:42:09.300Z,2010
2019-02-07T10:43:09.838Z,2010
2019-02-07T10:44:09.365Z,2010
2019-02-07T10:45:09.335Z,2010
2019-02-07T10:46:09.409Z,2010
2019-02-07T10:47:09.386Z,2010
2019-02-07T10:48:09.354Z,2010
2019-02-07T10:49:09.395Z,2010
2019-02-07T10:50:09.407Z,2010
2019-02-07T10:51:09.335Z,2010
2019-02-07T10:52:09.405Z,2010
2019-02-07T10:53:09.465Z,2010
2019-02-07T10:54:09.415Z,2010
2019-02-07T10:55:09.344Z,2010
2019-02-07T10:56:09.317Z,2010
2019-02-07T10:57:09.350Z,2010
2019-02-07T10:58:09.401Z,2010
2019-02-07T10:59:09.312Z,2010
2019-02-07T11:00:09.311Z,2010
2019-02-07T11:01:09.311Z,2010
2019-02-07T11:02:09.317Z,2010
2019-02-07T11:03:09.544Z,2010
2019-02-07T11:04:09.352Z,2010
2019-02-07T11:05:09.317Z,2010
2019-02-07T11:06:09.303Z,2010
2019-02-07T11:07:09.398Z,2010
2019-02-07T11:08:09.323Z,2010
2019-02-07T11:09:09.858Z,2010
2019-02-07T11:10:09.372Z,2010
2019-02-07T11:11:09.324Z,2011
2019-02-07T11:12:09.503Z,2011
2019-02-07T11:13:09.395Z,2011
2019-02-07T11:14:09.319Z,2011
2019-02-07T11:15:12.242Z,2011
2019-02-07T11:16:09.303Z,2011
2019-02-07T11:17:09.468Z,2011
2019-02-07T11:18:09.311Z,2012
2019-02-07T11:19:20.702Z,2012
2019-02-07T11:20:09.369Z,2012
2019-02-07T11:21:09.364Z,2012
2019-02-07T11:22:09.491Z,2012
2019-02-07T11:23:09.302Z,2013
2019-02-07T11:24:09.306Z,2013
2019-02-07T11:25:09.353Z,2013
2019-02-07T11:26:09.319Z,2013
2019-02-07T11:27:09.331Z,2013
2019-02-07T11:28:10.916Z,2012
2019-02-07T11:29:09.309Z,2012
2019-02-07T11:30:09.362Z,2012
2019-02-07T11:31:09.305Z,2012
2019-02-07T11:32:09.361Z,2012
2019-02-07T11:33:09.350Z,2011
2019-02-07T11:34:09.342Z,2011
2019-02-07T11:35:09.355Z,2012
2019-02-07T11:36:09.396Z,2012
2019-02-07T11:37:09.370Z,2012
2019-02-07T11:38:09.301Z,2012
2019-02-07T11:39:09.372Z,2012
2019-02-07T11:40:09.300Z,2012
2019-02-07T11:41:09.324Z,2012
2019-02-07T11:42:09.316Z,2012
2019-02-07T11:43:09.305Z,2012
2019-02-07T11:44:09.507Z,2012
2019-02-07T11:45:09.308Z,2011
2019-02-07T11:46:09.310Z,2011
2019-02-07T11:47:09.314Z,2011
2019-02-07T11:48:09.398Z,2011
2019-02-07T11:49:09.347Z,2011
2019-02-07T11:50:09.581Z,2011
2019-02-07T11:51:09.334Z,2011
2019-02-07T11:52:09.361Z,2011
2019-02-07T11:53:09.371Z,2011
2019-02-07T11:54:09.320Z,2012
2019-02-07T11:55:09.506Z,2011
2019-02-07T11:56:09.517Z,2011
2019-02-07T11:57:09.531Z,2012
2019-02-07T11:58:09.483Z,2012
2019-02-07T11:59:09.476Z,2012
2019-02-07T12:00:09.548Z,2013
2019-02-07T12:01:10.176Z,2013
2019-02-07T12:02:09.557Z,2014
2019-02-07T12:03:09.885Z,2015
2019-02-07T12:04:13.373Z,2015
2019-02-07T12:05:12.766Z,2015
2019-02-07T12:06:13.708Z,2015
2019-02-07T12:07:09.417Z,2015
2019-02-07T12:08:09.342Z,2015
2019-02-07T12:09:09.330Z,2015
2019-02-07T12:10:09.424Z,2015
2019-02-07T12:11:09.416Z,2015
2019-02-07T12:12:09.420Z,2014
2019-02-07T12:13:09.441Z,2013
2019-02-07T12:14:09.359Z,2012
2019-02-07T12:15:09.369Z,2012
2019-02-07T12:16:09.332Z,2012
2019-02-07T12:17:09.321Z,2012
2019-02-07T12:18:09.352Z,2012
2019-02-07T12:19:17.787Z,2012
2019-02-07T12:20:09.307Z,2012
2019-02-07T12:21:09.301Z,2012
2019-02-07T12:22:09.324Z,2012
2019-02-07T12:23:09.391Z,2012
2019-02-07T12:24:09.317Z,2012
2019-02-07T12:25:09.955Z,2013
2019-02-07T12:26:09.429Z,2013
2019-02-07T12:27:09.444Z,2013
2019-02-07T12:28:09.355Z,2013
2019-02-07T12:29:09.322Z,2013
2019-02-07T12:30:09.390Z,2013
2019-02-07T12:31:09.336Z,2013
2019-02-07T12:32:09.350Z,2013
2019-02-07T12:33:09.297Z,2013
2019-02-07T12:35:09.528Z,2012
2019-02-07T12:36:09.308Z,2012
2019-02-07T12:37:09.449Z,2012
2019-02-07T12:38:09.298Z,2012
2019-02-07T12:39:09.317Z,2012
2019-02-07T12:40:09.278Z,2012
2019-02-07T12:41:09.258Z,2012
2019-02-07T12:42:09.362Z,2012
2019-02-07T12:43:09.270Z,2012
2019-02-07T12:44:09.347Z,2012
2019-02-07T12:45:11.084Z,2012
2019-02-07T12:46:09.345Z,2012
2019-02-07T12:47:10.186Z,2012
2019-02-07T12:48:10.022Z,2012
2019-02-07T12:49:09.420Z,2012
2019-02-07T12:50:09.389Z,2012
2019-02-07T12:51:09.336Z,2012
2019-02-07T12:52:13.213Z,2012
2019-02-07T12:53:09.482Z,2012
2019-02-07T12:54:09.378Z,2012
2019-02-07T12:55:09.631Z,2012
2019-02-07T12:56:09.338Z,2012
2019-02-07T12:57:10.908Z,2012
2019-02-07T12:58:09.407Z,2012
2019-02-07T12:59:09.525Z,2012
2019-02-07T13:00:09.425Z,2012
2019-02-07T13:01:09.325Z,2012
2019-02-07T13:02:09.360Z,2012
2019-02-07T13:03:09.291Z,2012
2019-02-07T13:04:09.387Z,2012
2019-02-07T13:05:09.419Z,2012
2019-02-07T13:06:09.269Z,2012
2019-02-07T13:07:11.572Z,2012
2019-02-07T13:08:09.606Z,2012
2019-02-07T13:09:09.275Z,2012
2019-02-07T13:10:09.290Z,2012
2019-02-07T13:11:09.285Z,2012
2019-02-07T13:12:09.424Z,2011
2019-02-07T13:13:09.373Z,2011
2019-02-07T13:14:09.331Z,2012
2019-02-07T13:15:09.546Z,2012
2019-02-07T13:16:09.551Z,2012
2019-02-07T13:17:09.755Z,2012
2019-02-07T13:18:09.352Z,2012
2019-02-07T13:19:09.394Z,2012
2019-02-07T13:20:09.326Z,2012
2019-02-07T13:21:09.405Z,2012
2019-02-07T13:22:09.362Z,2012
2019-02-07T13:23:09.514Z,2012
2019-02-07T13:24:10.733Z,2012
2019-02-07T13:25:09.388Z,2012
2019-02-07T13:26:09.391Z,2012